Time;durP1;ratioP1;P1;durP2;ratioP2;P2;SDS_P1;SDS_P2;PMS_P1;PMS_P2;Temp;Humidity;BMP_temperature;BMP_pressure;BME280_temperature;BME280_humidity;BME280_pressure;Samples;Min_cycle;Max_cycle;Signal;HPM_P1;HPM_P2
2022/11/18 00:02:10;;;;;;;88.00;24.10;;;5.60;99.90;;;;;;5063748;28;20648;-86
2022/11/18 00:04:36;;;;;;;29.13;20.77;;;5.60;99.90;;;;;;5063472;28;20425;-86
2022/11/18 00:07:01;;;;;;;32.03;22.48;;;5.60;99.90;;;;;;5064715;28;20032;-86
2022/11/18 00:09:27;;;;;;;35.97;23.65;;;5.60;99.90;;;;;;5063027;28;20029;-87
2022/11/18 00:14:36;;;;;;;42.42;24.23;;;5.60;99.90;;;;;;5063482;28;20476;-86
2022/11/18 00:17:05;;;;;;;35.40;22.73;;;5.60;99.90;;;;;;5066662;28;20047;-86
2022/11/18 00:19:36;;;;;;;60.78;23.88;;;5.50;99.90;;;;;;5064502;28;20066;-85
2022/11/18 00:22:04;;;;;;;33.05;21.70;;;5.60;99.90;;;;;;5065485;28;20024;-86
2022/11/18 00:24:30;;;;;;;36.58;21.83;;;5.60;99.90;;;;;;5061146;28;20024;-86
2022/11/18 00:26:56;;;;;;;36.92;22.55;;;5.50;99.90;;;;;;5063989;28;20631;-86
2022/11/18 00:29:22;;;;;;;37.95;24.30;;;5.50;99.90;;;;;;5063657;28;20036;-85
2022/11/18 00:31:48;;;;;;;49.70;21.45;;;5.50;99.90;;;;;;5062841;28;20021;-86
2022/11/18 00:34:15;;;;;;;34.20;21.83;;;5.50;99.90;;;;;;5065429;28;20017;-86
2022/11/18 00:36:42;;;;;;;35.70;22.10;;;5.50;99.90;;;;;;5063705;28;20032;-86
2022/11/18 00:39:11;;;;;;;52.97;20.75;;;5.50;99.90;;;;;;5065452;28;20457;-87
2022/11/18 00:44:20;;;;;;;45.75;22.48;;;5.40;99.90;;;;;;5063823;28;20467;-86
2022/11/18 00:46:46;;;;;;;40.33;24.35;;;5.50;99.90;;;;;;5066125;28;20024;-86
2022/11/18 00:49:12;;;;;;;60.90;23.13;;;5.40;99.90;;;;;;5066263;28;20028;-86
2022/11/18 00:51:37;;;;;;;40.65;23.52;;;5.40;99.90;;;;;;5063667;28;20122;-86
2022/11/18 00:54:04;;;;;;;38.42;24.27;;;5.40;99.90;;;;;;5060788;28;20071;-85
2022/11/18 00:56:30;;;;;;;35.00;22.65;;;5.40;99.90;;;;;;5064317;28;20016;-86
2022/11/18 00:58:56;;;;;;;40.55;24.83;;;5.40;99.90;;;;;;5064193;28;20080;-86
2022/11/18 01:01:22;;;;;;;40.10;25.45;;;5.40;99.90;;;;;;5070293;28;20048;-86
2022/11/18 01:03:47;;;;;;;45.47;27.10;;;5.40;99.90;;;;;;5067645;28;20028;-86
2022/11/18 01:06:13;;;;;;;40.78;25.30;;;5.40;99.90;;;;;;5066188;28;20465;-86
2022/11/18 01:08:39;;;;;;;40.03;25.10;;;5.50;99.90;;;;;;5068397;28;20501;-86
2022/11/18 01:13:49;;;;;;;38.20;23.67;;;5.40;99.90;;;;;;5068288;28;20464;-86
2022/11/18 01:16:24;;;;;;;40.45;25.65;;;5.50;99.90;;;;;;5069486;28;20442;-86
2022/11/18 01:18:50;;;;;;;34.65;22.90;;;5.40;99.90;;;;;;5068133;28;20091;-85
2022/11/18 01:21:15;;;;;;;43.30;24.35;;;5.40;99.90;;;;;;5068461;28;20017;-85
2022/11/18 01:23:41;;;;;;;40.83;24.77;;;5.40;99.90;;;;;;5069545;28;20032;-86
2022/11/18 01:26:10;;;;;;;47.88;25.67;;;5.40;99.90;;;;;;5068001;28;20012;-86
2022/11/18 01:28:36;;;;;;;38.63;23.85;;;5.40;99.90;;;;;;5060722;28;20034;-85
2022/11/18 01:31:13;;;;;;;47.15;28.15;;;5.40;99.90;;;;;;5066296;28;20484;-86
2022/11/18 01:33:39;;;;;;;54.30;30.58;;;5.40;99.90;;;;;;5065416;28;20028;-86
2022/11/18 01:36:15;;;;;;;64.57;33.10;;;5.40;99.90;;;;;;5068701;28;20024;-86
2022/11/18 01:38:41;;;;;;;;;;;5.40;99.90;;;;;;5062315;28;20025;-86
2022/11/18 01:41:06;;;;;;;49.20;28.88;;;5.40;99.90;;;;;;5066928;28;19904;-86
2022/11/18 01:43:49;;;;;;;54.78;29.60;;;5.40;99.90;;;;;;5068534;28;20243;-86
2022/11/18 01:46:15;;;;;;;50.85;28.70;;;5.40;99.90;;;;;;5067308;28;20039;-85
2022/11/18 01:48:42;;;;;;;55.50;28.77;;;5.40;99.90;;;;;;5063797;28;20024;-86
2022/11/18 01:51:12;;;;;;;50.28;29.13;;;5.40;99.90;;;;;;5067216;28;20040;-86
2022/11/18 01:53:46;;;;;;;45.30;27.30;;;5.40;99.90;;;;;;5068523;28;20424;-86
2022/11/18 01:56:27;;;;;;;40.97;25.58;;;5.40;99.90;;;;;;5059313;28;20016;-86
2022/11/18 01:58:56;;;;;;;415.70;29.88;;;5.40;99.90;;;;;;5066518;28;20063;-86
2022/11/18 02:01:22;;;;;;;39.83;23.63;;;5.40;99.90;;;;;;5066738;28;20043;-86
2022/11/18 02:03:49;;;;;;;32.83;20.83;;;5.30;99.90;;;;;;5064939;28;20033;-86
2022/11/18 02:06:15;;;;;;;47.13;24.20;;;5.30;99.90;;;;;;5066934;28;20445;-86
2022/11/18 02:08:42;;;;;;;37.30;22.33;;;5.30;99.90;;;;;;5068114;28;20415;-86
2022/11/18 02:14:01;;;;;;;38.42;23.25;;;5.20;99.90;;;;;;5065758;28;20398;-86
2022/11/18 02:16:55;;;;;;;352.17;29.00;;;5.30;99.90;;;;;;5067895;28;20598;-86
2022/11/18 02:19:24;;;;;;;69.10;27.83;;;5.20;99.90;;;;;;5068532;28;20385;-85
2022/11/18 02:22:14;;;;;;;41.75;24.83;;;5.20;99.90;;;;;;5064565;28;20171;-86
2022/11/18 02:25:02;;;;;;;215.13;29.05;;;5.20;99.90;;;;;;5065068;28;20032;-85
2022/11/18 02:27:56;;;;;;;39.38;23.85;;;5.20;99.90;;;;;;5067876;28;20545;-86
2022/11/18 02:30:22;;;;;;;39.85;25.08;;;5.20;99.90;;;;;;5065527;28;20781;-86
2022/11/18 02:33:21;;;;;;;35.30;23.27;;;5.20;99.90;;;;;;5067038;28;20077;-86
2022/11/18 02:35:57;;;;;;;36.05;23.08;;;5.20;99.90;;;;;;5064265;28;20073;-86
2022/11/18 02:38:29;;;;;;;34.83;22.95;;;5.20;99.90;;;;;;5067554;28;20049;-86
2022/11/18 02:41:00;;;;;;;31.33;22.23;;;5.10;99.90;;;;;;5067437;28;20054;-85
2022/11/18 02:43:31;;;;;;;28.77;20.70;;;5.10;99.90;;;;;;5062733;28;20672;-86
2022/11/18 02:46:01;;;;;;;288.45;24.83;;;5.10;99.90;;;;;;5065770;28;20342;-85
2022/11/18 02:48:37;;;;;;;28.17;19.42;;;5.10;99.90;;;;;;5066630;28;20032;-86
2022/11/18 02:51:06;;;;;;;166.52;23.25;;;5.00;99.90;;;;;;5064075;28;20040;-86
2022/11/18 02:53:33;;;;;;;61.63;22.35;;;5.00;99.90;;;;;;5066620;28;20052;-86
2022/11/18 02:56:03;;;;;;;142.93;22.90;;;5.00;99.90;;;;;;5066827;28;20350;-85
2022/11/18 02:58:29;;;;;;;28.25;19.90;;;4.90;99.90;;;;;;5067988;28;20091;-86
2022/11/18 03:00:59;;;;;;;34.83;21.10;;;4.90;99.90;;;;;;5067645;28;20455;-86
2022/11/18 03:03:31;;;;;;;82.82;21.38;;;4.90;99.90;;;;;;5066238;28;20024;-86
2022/11/18 03:06:18;;;;;;;29.58;21.00;;;4.90;99.90;;;;;;5064482;28;20155;-85
2022/11/18 03:08:49;;;;;;;36.67;21.38;;;4.80;99.90;;;;;;5067133;28;20033;-86
2022/11/18 03:11:21;;;;;;;54.38;21.35;;;4.80;99.90;;;;;;5065842;28;20098;-85
2022/11/18 03:13:55;;;;;;;33.25;22.50;;;4.80;99.90;;;;;;5068251;28;20028;-86
2022/11/18 03:16:44;;;;;;;40.35;24.67;;;4.80;99.90;;;;;;5066023;28;20024;-85
2022/11/18 03:19:37;;;;;;;67.30;26.05;;;4.80;99.90;;;;;;5068464;28;20032;-85
2022/11/18 03:22:22;;;;;;;40.95;25.92;;;4.80;99.90;;;;;;5066316;28;20111;-86
2022/11/18 03:25:12;;;;;;;51.40;27.13;;;4.80;99.90;;;;;;5065533;28;20441;-85
2022/11/18 03:28:00;;;;;;;69.63;27.65;;;4.80;99.90;;;;;;5066333;28;20540;-86
2022/11/18 03:30:29;;;;;;;46.35;28.52;;;4.70;99.90;;;;;;5062713;28;20085;-86
2022/11/18 03:33:10;;;;;;;50.10;28.23;;;4.70;99.90;;;;;;5067386;28;20062;-86
2022/11/18 03:35:40;;;;;;;118.32;30.17;;;4.70;99.90;;;;;;5061387;28;20024;-85
2022/11/18 03:38:10;;;;;;;47.80;28.67;;;4.70;99.90;;;;;;5068392;28;20077;-86
2022/11/18 03:40:40;;;;;;;45.70;28.73;;;4.70;99.90;;;;;;5067199;28;20017;-85
2022/11/18 03:43:11;;;;;;;48.20;29.48;;;4.70;99.90;;;;;;5066924;28;20517;-86
2022/11/18 03:45:51;;;;;;;79.03;30.13;;;4.60;99.90;;;;;;5064728;28;20111;-85
2022/11/18 03:48:27;;;;;;;52.05;30.77;;;4.70;99.90;;;;;;5067144;28;20044;-84
2022/11/18 03:50:58;;;;;;;64.35;31.65;;;4.70;99.90;;;;;;5065967;28;20477;-85
2022/11/18 03:53:27;;;;;;;64.20;31.23;;;4.60;99.90;;;;;;5064488;28;20897;-85
2022/11/18 03:56:01;;;;;;;62.10;32.20;;;4.60;99.90;;;;;;5066965;28;20035;-85
2022/11/18 03:58:39;;;;;;;51.72;31.73;;;4.60;99.90;;;;;;5063718;28;20019;-84
2022/11/18 04:01:14;;;;;;;71.38;35.42;;;4.60;99.90;;;;;;5067182;28;20027;-85
2022/11/18 04:03:40;;;;;;;49.80;31.95;;;4.60;99.90;;;;;;5063976;28;20032;-84
2022/11/18 04:06:29;;;;;;;57.25;33.53;;;4.60;99.90;;;;;;5066505;28;20048;-84
2022/11/18 04:08:59;;;;;;;70.35;29.25;;;4.60;99.90;;;;;;5063437;28;20149;-84
2022/11/18 04:14:17;;;;;;;93.70;31.67;;;4.50;99.90;;;;;;5066569;28;20606;-85
2022/11/18 04:16:48;;;;;;;53.95;31.92;;;4.50;99.90;;;;;;5065290;28;20020;-85
2022/11/18 04:19:14;;;;;;;54.38;33.95;;;4.50;99.90;;;;;;5059441;28;20021;-84
2022/11/18 04:21:39;;;;;;;60.60;36.90;;;4.50;99.90;;;;;;5063319;28;20044;-84
2022/11/18 04:24:11;;;;;;;63.08;35.08;;;4.50;99.90;;;;;;5064789;28;20024;-84
2022/11/18 04:26:37;;;;;;;70.57;34.83;;;4.50;99.90;;;;;;5067205;28;20100;-86
2022/11/18 04:29:02;;;;;;;54.78;34.40;;;4.50;99.90;;;;;;5067079;28;20525;-84
2022/11/18 04:31:29;;;;;;;62.60;36.58;;;4.50;99.90;;;;;;5064956;28;20017;-84
2022/11/18 04:33:55;;;;;;;119.13;37.67;;;4.40;99.90;;;;;;5069777;28;20089;-84
2022/11/18 04:36:20;;;;;;;61.28;36.00;;;4.40;99.90;;;;;;5071706;28;20032;-84
2022/11/18 04:38:46;;;;;;;69.07;35.75;;;4.40;99.90;;;;;;5073286;28;20029;-85
2022/11/18 04:41:12;;;;;;;57.90;33.60;;;4.40;99.90;;;;;;5070617;28;20377;-84
2022/11/18 04:43:37;;;;;;;124.55;37.63;;;4.40;99.90;;;;;;5069927;28;20051;-85
2022/11/18 04:46:03;;;;;;;58.28;34.65;;;4.40;99.90;;;;;;5070033;28;20033;-84
2022/11/18 04:48:29;;;;;;;74.10;35.25;;;4.40;99.90;;;;;;5071160;28;20040;-85
2022/11/18 04:50:57;;;;;;;54.17;32.75;;;4.30;99.90;;;;;;5070780;28;20036;-84
2022/11/18 04:53:23;;;;;;;53.83;32.75;;;4.30;99.90;;;;;;5070054;28;20025;-84
2022/11/18 04:55:48;;;;;;;56.72;33.10;;;4.30;99.90;;;;;;5070116;28;20021;-84
2022/11/18 04:58:14;;;;;;;57.28;33.20;;;4.30;99.90;;;;;;5069262;28;20016;-85
2022/11/18 05:00:40;;;;;;;54.00;30.45;;;4.30;99.90;;;;;;5068513;28;20028;-84
2022/11/18 05:03:05;;;;;;;62.50;33.70;;;4.30;99.90;;;;;;5069974;28;20028;-85
2022/11/18 05:05:33;;;;;;;51.65;30.17;;;4.30;99.90;;;;;;5067067;28;20449;-85
2022/11/18 05:07:58;;;;;;;66.43;35.03;;;4.30;99.90;;;;;;5066063;28;20165;-84
2022/11/18 05:10:24;;;;;;;57.83;32.15;;;4.30;99.90;;;;;;5067390;28;20112;-85
2022/11/18 05:12:51;;;;;;;63.47;33.05;;;4.30;99.90;;;;;;5066636;28;20031;-84
2022/11/18 05:15:19;;;;;;;102.25;33.08;;;4.30;99.90;;;;;;5065552;28;20473;-85
2022/11/18 05:17:48;;;;;;;72.20;32.45;;;4.30;99.90;;;;;;5063396;28;20028;-85
2022/11/18 05:20:14;;;;;;;61.20;32.92;;;4.20;99.90;;;;;;5067318;28;20033;-85
2022/11/18 05:22:40;;;;;;;83.35;35.70;;;4.20;99.90;;;;;;5064221;28;20028;-84
2022/11/18 05:25:06;;;;;;;64.80;34.28;;;4.20;99.90;;;;;;5067996;28;20032;-84
2022/11/18 05:27:32;;;;;;;68.85;35.72;;;4.20;99.90;;;;;;5062861;28;20025;-84
2022/11/18 05:29:58;;;;;;;78.72;33.85;;;4.20;99.90;;;;;;5065832;28;20047;-85
2022/11/18 05:32:24;;;;;;;82.30;35.85;;;4.20;99.90;;;;;;5067806;28;20099;-85
2022/11/18 05:34:49;;;;;;;71.57;37.58;;;4.20;99.90;;;;;;5069018;28;20173;-85
2022/11/18 05:37:15;;;;;;;93.32;34.17;;;4.20;99.90;;;;;;5067726;28;20032;-84
2022/11/18 05:39:41;;;;;;;67.97;36.22;;;4.20;99.90;;;;;;5067285;28;20032;-85
2022/11/18 05:44:50;;;;;;;61.92;33.30;;;4.20;99.90;;;;;;5063650;28;20113;-84
2022/11/18 05:47:17;;;;;;;58.45;33.75;;;4.20;99.90;;;;;;5066115;28;20052;-85
2022/11/18 05:49:44;;;;;;;64.78;34.65;;;4.10;99.90;;;;;;5068391;28;20053;-84
2022/11/18 05:52:10;;;;;;;93.80;35.35;;;4.10;99.90;;;;;;5061120;28;20016;-85
2022/11/18 05:54:49;;;;;;;66.65;37.80;;;4.10;99.90;;;;;;5058881;28;20024;-85
2022/11/18 05:57:14;;;;;;;90.82;35.72;;;4.10;99.90;;;;;;5065053;28;20461;-85
2022/11/18 05:59:40;;;;;;;62.28;35.35;;;4.10;99.90;;;;;;5074898;28;20085;-85
2022/11/18 06:02:14;;;;;;;68.53;35.75;;;4.10;99.90;;;;;;5071698;28;20123;-85
2022/11/18 06:04:51;;;;;;;65.78;36.17;;;4.10;99.90;;;;;;5069342;28;20033;-85
2022/11/18 06:07:21;;;;;;;59.00;34.88;;;4.00;99.90;;;;;;5069553;28;20024;-85
2022/11/18 06:09:50;;;;;;;66.90;33.03;;;4.00;99.90;;;;;;5068208;28;20059;-85
2022/11/18 06:12:20;;;;;;;58.83;33.17;;;4.00;99.90;;;;;;5069268;28;20021;-85
2022/11/18 06:15:10;;;;;;;83.85;41.42;;;4.00;99.90;;;;;;5065642;28;20037;-85
2022/11/18 06:17:45;;;;;;;74.45;38.30;;;4.00;99.90;;;;;;5066251;28;20036;-85
2022/11/18 06:20:12;;;;;;;89.38;40.85;;;4.00;99.90;;;;;;5068171;28;20028;-85
2022/11/18 06:22:38;;;;;;;303.00;39.90;;;4.10;99.90;;;;;;5068633;28;20026;-84
2022/11/18 06:25:04;;;;;;;62.13;34.33;;;4.00;99.90;;;;;;5069631;28;20131;-85
2022/11/18 06:27:30;;;;;;;58.63;33.80;;;4.00;99.90;;;;;;5067808;28;20025;-85
2022/11/18 06:29:56;;;;;;;62.83;34.83;;;4.00;99.90;;;;;;5067820;28;20047;-85
2022/11/18 06:32:22;;;;;;;94.03;36.70;;;4.00;99.90;;;;;;5068716;28;20461;-85
2022/11/18 06:34:47;;;;;;;95.10;30.55;;;4.00;99.90;;;;;;5067964;28;20028;-85
2022/11/18 06:37:15;;;;;;;63.13;34.25;;;4.00;99.90;;;;;;5070451;28;20047;-85
2022/11/18 06:39:41;;;;;;;60.97;32.47;;;3.90;99.90;;;;;;5069938;28;20220;-85
2022/11/18 06:42:07;;;;;;;162.05;37.35;;;3.90;99.90;;;;;;5067389;28;20024;-85
2022/11/18 06:44:32;;;;;;;95.18;35.22;;;3.90;99.90;;;;;;5063092;28;20016;-86
2022/11/18 06:46:58;;;;;;;57.40;32.90;;;3.90;99.90;;;;;;5065150;28;20017;-85
2022/11/18 06:49:25;;;;;;;53.53;34.15;;;3.80;99.90;;;;;;5066628;28;20037;-85
2022/11/18 06:51:50;;;;;;;57.78;32.75;;;3.80;99.90;;;;;;5058737;28;20136;-86
2022/11/18 06:54:17;;;;;;;55.40;33.20;;;3.80;99.90;;;;;;5070468;28;20142;-86
2022/11/18 06:56:42;;;;;;;61.10;33.58;;;3.90;99.90;;;;;;5068002;28;20478;-86
2022/11/18 06:59:08;;;;;;;63.30;33.33;;;3.80;99.90;;;;;;5068250;28;20115;-86
2022/11/18 07:01:37;;;;;;;63.25;35.22;;;3.80;99.90;;;;;;5064873;28;20025;-86
2022/11/18 07:04:03;;;;;;;110.25;39.35;;;3.90;99.90;;;;;;5068572;28;20032;-86
2022/11/18 07:06:32;;;;;;;88.90;39.83;;;3.90;99.90;;;;;;5060421;28;20088;-85
2022/11/18 07:09:00;;;;;;;65.30;36.80;;;3.80;99.90;;;;;;5067278;28;20099;-84
2022/11/18 07:11:27;;;;;;;68.90;35.85;;;3.80;99.90;;;;;;5067719;28;20052;-84
2022/11/18 07:13:53;;;;;;;68.78;35.13;;;3.80;99.90;;;;;;5071676;28;20032;-84
2022/11/18 07:16:29;;;;;;;75.70;38.60;;;3.80;99.90;;;;;;5070785;28;20027;-83
2022/11/18 07:18:55;;;;;;;62.45;35.20;;;3.80;99.90;;;;;;5064755;28;20342;-83
2022/11/18 07:21:23;;;;;;;108.75;38.13;;;3.80;99.90;;;;;;5066450;28;20031;-84
2022/11/18 07:23:49;;;;;;;67.88;37.45;;;3.80;99.90;;;;;;5065276;28;20077;-84
2022/11/18 07:26:15;;;;;;;73.15;38.15;;;3.70;99.90;;;;;;5065413;28;20036;-84
2022/11/18 07:28:41;;;;;;;75.47;39.03;;;3.80;99.90;;;;;;5065653;28;20039;-84
2022/11/18 07:31:09;;;;;;;97.38;43.15;;;3.70;99.90;;;;;;5066249;28;20036;-84
2022/11/18 07:33:35;;;;;;;77.20;42.55;;;3.70;99.90;;;;;;5072226;28;20024;-84
2022/11/18 07:36:24;;;;;;;70.55;39.22;;;3.70;99.90;;;;;;5069042;28;20029;-84
2022/11/18 07:38:50;;;;;;;103.20;40.00;;;3.70;99.90;;;;;;5062171;28;20431;-84
2022/11/18 07:41:21;;;;;;;86.25;43.20;;;3.70;99.90;;;;;;5063246;28;20020;-84
2022/11/18 07:43:49;;;;;;;85.78;44.25;;;3.70;99.90;;;;;;5064800;28;20020;-84
2022/11/18 07:46:17;;;;;;;191.02;44.97;;;3.60;99.90;;;;;;5069106;28;20111;-84
2022/11/18 07:48:44;;;;;;;79.72;41.80;;;3.60;99.90;;;;;;5065989;28;20036;-85
2022/11/18 07:51:11;;;;;;;118.40;41.55;;;3.60;99.90;;;;;;5063141;28;20115;-83
2022/11/18 07:53:37;;;;;;;85.38;40.35;;;3.60;99.90;;;;;;5066058;28;20039;-84
2022/11/18 07:56:04;;;;;;;85.25;41.63;;;3.60;99.90;;;;;;5075231;28;20024;-84
2022/11/18 07:58:29;;;;;;;93.45;45.00;;;3.60;99.90;;;;;;5066111;28;20107;-84
2022/11/18 08:00:55;;;;;;;99.53;44.67;;;3.60;99.90;;;;;;5066255;28;20116;-85
2022/11/18 08:03:26;;;;;;;81.97;42.38;;;3.60;99.90;;;;;;5066097;28;20017;-84
2022/11/18 08:05:53;;;;;;;73.80;40.17;;;3.60;99.90;;;;;;5060700;28;20089;-85
2022/11/18 08:08:18;;;;;;;124.45;45.72;;;3.60;99.90;;;;;;5071986;28;20073;-85
2022/11/18 08:10:44;;;;;;;146.90;46.25;;;3.60;99.90;;;;;;5068367;28;20447;-84
2022/11/18 08:13:12;;;;;;;91.25;43.42;;;3.60;99.90;;;;;;5071069;28;20024;-84
2022/11/18 08:15:42;;;;;;;98.05;43.60;;;3.60;99.90;;;;;;5065985;28;20063;-84
2022/11/18 08:18:08;;;;;;;76.18;40.63;;;3.60;99.90;;;;;;5072408;28;20392;-84
2022/11/18 08:20:36;;;;;;;72.00;38.15;;;3.50;99.90;;;;;;5068084;28;20012;-84
2022/11/18 08:23:02;;;;;;;106.47;36.55;;;3.60;99.90;;;;;;5069610;28;20454;-84
2022/11/18 08:25:28;;;;;;;67.00;37.30;;;3.50;99.90;;;;;;5068741;28;20094;-84
2022/11/18 08:27:54;;;;;;;180.43;40.67;;;3.50;99.90;;;;;;5069577;28;20035;-84
2022/11/18 08:30:19;;;;;;;96.45;33.70;;;3.50;99.90;;;;;;5069431;28;20032;-84
2022/11/18 08:32:45;;;;;;;66.80;35.40;;;3.40;99.90;;;;;;5068582;28;20012;-84
2022/11/18 08:35:10;;;;;;;155.63;37.22;;;3.40;99.90;;;;;;5060754;28;20029;-84
2022/11/18 08:37:36;;;;;;;62.92;34.45;;;3.40;99.90;;;;;;5066352;28;20028;-84
2022/11/18 08:40:02;;;;;;;68.30;37.58;;;3.30;99.90;;;;;;5065197;28;20031;-84
2022/11/18 08:42:28;;;;;;;74.95;36.67;;;3.30;99.90;;;;;;5061806;28;20453;-84
2022/11/18 08:44:53;;;;;;;76.32;42.22;;;3.30;99.90;;;;;;5066916;28;20020;-83
2022/11/18 08:47:19;;;;;;;72.53;39.80;;;3.30;99.90;;;;;;5066058;28;20020;-83
2022/11/18 08:49:44;;;;;;;77.07;42.05;;;3.20;99.90;;;;;;5069740;28;20060;-84
2022/11/18 08:52:10;;;;;;;82.95;42.08;;;3.20;99.90;;;;;;5066153;28;20033;-84
2022/11/18 08:54:36;;;;;;;263.83;44.92;;;3.20;99.90;;;;;;5069516;28;20040;-84
2022/11/18 08:57:01;;;;;;;94.97;46.22;;;3.20;99.90;;;;;;5068629;28;20066;-84
2022/11/18 08:59:27;;;;;;;174.40;44.08;;;3.20;99.90;;;;;;5067825;28;20379;-84
2022/11/18 09:01:52;;;;;;;232.48;48.33;;;3.10;99.90;;;;;;5060691;28;20462;-83
2022/11/18 09:04:20;;;;;;;79.75;42.10;;;3.10;99.90;;;;;;5065326;28;20415;-84
2022/11/18 09:06:45;;;;;;;87.28;47.30;;;3.10;99.90;;;;;;5066360;28;20029;-84
2022/11/18 09:09:11;;;;;;;122.22;46.90;;;3.10;99.90;;;;;;5070862;28;20012;-85
2022/11/18 09:11:38;;;;;;;93.40;44.63;;;3.00;99.90;;;;;;5070496;28;20032;-84
2022/11/18 09:14:05;;;;;;;99.15;48.85;;;3.00;99.90;;;;;;5066990;28;20027;-84
2022/11/18 09:16:32;;;;;;;90.63;47.35;;;3.00;99.90;;;;;;5069870;28;20177;-84
2022/11/18 09:18:59;;;;;;;100.47;51.28;;;2.90;99.90;;;;;;5059892;28;20024;-84
2022/11/18 09:21:25;;;;;;;124.15;53.05;;;2.90;99.90;;;;;;5066536;28;20374;-85
2022/11/18 09:23:51;;;;;;;99.07;49.45;;;2.90;99.90;;;;;;5060980;28;20016;-84
2022/11/18 09:26:22;;;;;;;136.52;55.33;;;2.90;99.90;;;;;;5061077;28;20369;-84
2022/11/18 09:28:49;;;;;;;108.75;52.65;;;2.90;99.90;;;;;;5064477;28;20029;-84
2022/11/18 09:31:16;;;;;;;103.55;50.78;;;2.90;99.90;;;;;;5069963;28;20071;-84
2022/11/18 09:33:42;;;;;;;124.55;45.47;;;2.80;99.90;;;;;;5069746;28;20036;-84
2022/11/18 09:36:26;;;;;;;125.50;52.58;;;2.80;99.90;;;;;;5066040;28;20028;-84
2022/11/18 09:38:52;;;;;;;99.43;48.38;;;2.80;99.90;;;;;;5062245;28;20380;-84
2022/11/18 09:41:43;;;;;;;102.93;51.95;;;2.80;99.90;;;;;;5070255;28;20023;-83
2022/11/18 09:44:36;;;;;;;95.78;48.42;;;2.80;99.90;;;;;;5060285;28;20021;-84
2022/11/18 09:47:02;;;;;;;118.30;47.33;;;2.80;99.90;;;;;;5062196;28;20173;-84
2022/11/18 09:49:32;;;;;;;114.80;45.53;;;2.80;99.90;;;;;;5069927;28;20141;-83
2022/11/18 09:52:03;;;;;;;103.93;45.83;;;2.80;99.90;;;;;;5060156;28;20027;-83
2022/11/18 09:54:36;;;;;;;102.68;46.50;;;2.70;99.90;;;;;;5069864;28;20116;-84
2022/11/18 09:57:23;;;;;;;89.25;45.10;;;2.70;99.90;;;;;;5065853;28;20493;-84
2022/11/18 09:59:49;;;;;;;111.78;45.92;;;2.60;99.90;;;;;;5066173;28;20051;-83
2022/11/18 10:02:41;;;;;;;120.10;49.60;;;2.70;99.90;;;;;;5067005;28;20535;-84
2022/11/18 10:05:43;;;;;;;93.65;44.90;;;2.70;99.90;;;;;;5066554;28;20024;-83
2022/11/18 10:08:08;;;;;;;79.50;41.17;;;2.70;99.90;;;;;;5062226;28;20365;-83
2022/11/18 10:10:48;;;;;;;104.15;47.17;;;2.60;99.90;;;;;;5064841;28;20044;-83
2022/11/18 10:13:51;;;;;;;83.65;43.47;;;2.60;99.90;;;;;;5066612;28;20024;-82
2022/11/18 10:16:25;;;;;;;88.88;42.72;;;2.60;99.90;;;;;;5005253;28;20183;-84
2022/11/18 10:18:56;;;;;;;80.00;40.90;;;2.60;99.90;;;;;;5054462;28;20203;-82
2022/11/18 10:21:34;;;;;;;85.38;36.95;;;2.60;99.90;;;;;;5067304;28;20469;-82
2022/11/18 10:24:08;;;;;;;70.80;34.45;;;2.60;99.90;;;;;;5065753;28;20029;-83
2022/11/18 10:26:37;;;;;;;66.20;32.40;;;2.50;99.90;;;;;;5068999;28;20028;-84
2022/11/18 10:29:06;;;;;;;72.00;36.38;;;2.50;99.90;;;;;;5061942;28;20044;-83
2022/11/18 10:31:34;;;;;;;69.82;34.80;;;2.50;99.90;;;;;;5070158;28;20044;-84
2022/11/18 10:34:02;;;;;;;64.82;32.22;;;2.50;99.90;;;;;;5073829;28;20245;-84
2022/11/18 10:36:36;;;;;;;55.35;28.30;;;2.50;99.90;;;;;;5071333;28;20024;-83
2022/11/18 10:39:11;;;;;;;57.55;27.98;;;2.60;99.90;;;;;;5084437;28;20029;-83
2022/11/18 10:41:48;;;;;;;53.50;28.33;;;2.60;99.90;;;;;;5065748;28;20055;-83
2022/11/18 10:44:40;;;;;;;51.75;27.08;;;2.50;99.90;;;;;;5065596;28;20035;-83
2022/11/18 10:47:23;;;;;;;53.30;27.60;;;2.50;99.90;;;;;;5062042;28;20032;-84
2022/11/18 10:49:51;;;;;;;43.90;25.42;;;2.60;99.90;;;;;;5063233;28;20503;-84
2022/11/18 10:52:17;;;;;;;48.67;24.45;;;2.60;99.90;;;;;;5063389;28;20422;-84
2022/11/18 10:54:42;;;;;;;42.47;22.60;;;2.50;99.90;;;;;;5065276;28;20116;-82
2022/11/18 10:57:18;;;;;;;40.75;21.63;;;2.50;99.90;;;;;;5062832;28;20563;-83
2022/11/18 11:00:02;;;;;;;52.15;23.42;;;2.50;99.90;;;;;;5066311;28;20037;-83
2022/11/18 11:02:32;;;;;;;42.47;22.35;;;2.50;99.90;;;;;;5065952;28;20032;-84
2022/11/18 11:05:01;;;;;;;40.25;22.70;;;2.50;99.90;;;;;;5065429;28;20082;-84
2022/11/18 11:07:31;;;;;;;52.55;25.15;;;2.40;99.90;;;;;;5064936;28;20016;-84
2022/11/18 11:10:06;;;;;;;42.47;23.83;;;2.50;99.90;;;;;;5062646;28;20039;-83
2022/11/18 11:12:37;;;;;;;47.22;26.33;;;2.50;99.90;;;;;;5064562;28;20037;-83
2022/11/18 11:15:12;;;;;;;49.42;26.33;;;2.50;99.90;;;;;;5066355;28;20020;-84
2022/11/18 11:18:40;;;;;;;50.50;25.58;;;2.40;99.90;;;;;;5060139;28;20020;-84
2022/11/18 11:20:35;;;;;;;45.80;24.40;;;2.40;99.90;;;;;;5063903;28;20040;-84
2022/11/18 11:23:01;;;;;;;38.25;21.42;;;2.40;99.90;;;;;;5065754;28;20123;-83
2022/11/18 11:25:43;;;;;;;39.92;21.02;;;2.40;99.90;;;;;;5065613;28;20056;-84
2022/11/18 11:28:18;;;;;;;34.63;20.77;;;2.40;99.90;;;;;;5064214;28;20031;-82
2022/11/18 11:30:59;;;;;;;35.70;19.90;;;2.30;99.90;;;;;;5065523;28;20044;-84
2022/11/18 11:33:46;;;;;;;30.73;18.23;;;2.30;99.90;;;;;;5066964;28;20461;-84
2022/11/18 11:36:27;;;;;;;31.48;18.33;;;2.20;99.90;;;;;;5065304;28;20501;-84
2022/11/18 11:39:24;;;;;;;30.48;18.35;;;2.10;99.90;;;;;;5065008;28;20031;-84
2022/11/18 11:42:30;;;;;;;37.05;18.50;;;2.10;99.90;;;;;;5063067;28;20123;-83
2022/11/18 11:45:09;;;;;;;29.55;17.50;;;2.10;99.90;;;;;;5020907;28;20043;-84
2022/11/18 11:48:05;;;;;;;39.38;21.20;;;2.10;99.90;;;;;;5082678;28;20023;-84
2022/11/18 11:50:54;;;;;;;40.35;22.30;;;2.10;99.90;;;;;;5066136;28;20052;-84
2022/11/18 11:53:52;;;;;;;35.75;20.70;;;2.20;99.90;;;;;;5065639;28;20049;-83
2022/11/18 11:56:27;;;;;;;;;;;2.10;99.90;;;;;;5062824;28;20025;-83
2022/11/18 11:59:16;;;;;;;41.75;20.92;;;2.10;99.90;;;;;;5065589;28;20234;-84
2022/11/18 12:02:12;;;;;;;37.45;19.35;;;2.00;99.90;;;;;;5058467;28;20103;-83
2022/11/18 12:04:45;;;;;;;37.03;19.50;;;2.10;99.90;;;;;;5064044;28;20039;-84
2022/11/18 12:07:32;;;;;;;34.00;19.55;;;2.10;99.90;;;;;;5060355;28;20416;-85
2022/11/18 12:10:04;;;;;;;39.00;21.60;;;2.10;99.90;;;;;;5064030;28;20044;-84
2022/11/18 12:12:37;;;;;;;34.00;20.00;;;2.00;99.90;;;;;;5062528;28;20031;-84
2022/11/18 12:15:17;;;;;;;38.88;20.52;;;2.10;99.90;;;;;;5066813;28;20048;-85
2022/11/18 12:18:22;;;;;;;34.85;20.65;;;2.00;99.90;;;;;;5059789;28;20116;-84
2022/11/18 12:20:50;;;;;;;36.33;20.70;;;2.00;99.90;;;;;;5040872;28;20539;-84
2022/11/18 12:23:25;;;;;;;31.10;17.90;;;1.90;99.90;;;;;;5066426;28;20477;-84
2022/11/18 12:25:54;;;;;;;31.15;17.88;;;1.90;99.90;;;;;;5067311;28;20735;-84
2022/11/18 12:28:33;;;;;;;32.25;18.48;;;1.90;99.90;;;;;;5061036;28;20035;-84
2022/11/18 12:31:17;;;;;;;31.13;18.23;;;1.90;99.90;;;;;;5062971;28;20346;-84
2022/11/18 12:33:50;;;;;;;38.55;19.38;;;1.90;99.90;;;;;;5065961;28;20028;-84
2022/11/18 12:36:27;;;;;;;31.08;17.90;;;2.00;99.90;;;;;;5067742;28;20051;-84
2022/11/18 12:38:53;;;;;;;30.13;18.77;;;1.90;99.90;;;;;;5061769;28;20021;-83
2022/11/18 12:44:23;;;;;;;29.15;18.65;;;1.80;99.90;;;;;;5063660;28;20079;-83
2022/11/18 12:46:50;;;;;;;31.02;18.85;;;1.80;99.90;;;;;;5062199;28;20505;-84
2022/11/18 12:49:23;;;;;;;31.55;20.27;;;1.70;99.90;;;;;;5063514;28;20417;-83
2022/11/18 12:51:59;;;;;;;34.45;22.42;;;1.80;99.90;;;;;;5061715;28;20095;-83
2022/11/18 12:54:29;;;;;;;35.75;22.85;;;1.80;99.90;;;;;;5100192;28;20021;-84
2022/11/18 12:56:58;;;;;;;34.35;22.50;;;1.80;99.90;;;;;;5080706;28;20112;-83
2022/11/18 12:59:30;;;;;;;35.75;22.17;;;1.80;99.90;;;;;;5069975;28;20415;-84
2022/11/18 13:02:10;;;;;;;38.15;21.75;;;1.80;99.90;;;;;;5064899;28;20024;-84
2022/11/18 13:04:37;;;;;;;32.97;21.65;;;1.70;99.90;;;;;;5065421;28;20086;-83
2022/11/18 13:08:11;;;;;;;37.95;22.85;;;1.70;99.90;;;;;;5066319;28;20033;-84
2022/11/18 13:09:55;;;;;;;33.80;21.60;;;1.70;99.90;;;;;;5068094;28;20060;-83
2022/11/18 13:12:25;;;;;;;36.58;21.08;;;1.70;99.90;;;;;;5065724;28;20033;-84
2022/11/18 13:17:57;;;;;;;32.85;21.38;;;1.60;99.90;;;;;;5066973;28;20055;-83
2022/11/18 13:20:34;;;;;;;38.00;22.67;;;1.60;99.90;;;;;;5068707;28;20131;-83